Time;durP1;ratioP1;P1;durP2;ratioP2;P2;SDS_P1;SDS_P2;PMS_P1;PMS_P2;Temp;Humidity;BMP_temperature;BMP_pressure;BME280_temperature;BME280_humidity;BME280_pressure;Samples;Min_cycle;Max_cycle;Signal;HPM_P1;HPM_P2
2023/03/16 00:01:33;;;;;;;10.82;5.22;;;;;;;;;;4983835;28;20019;-65
2023/03/16 00:03:58;;;;;;;14.15;5.75;;;;;;;;;;4979854;28;20035;-64
2023/03/16 00:06:24;;;;;;;12.45;5.38;;;;;;;;;;4969538;28;20030;-65
2023/03/16 00:08:49;;;;;;;12.90;5.38;;;;;;;;;;4969684;28;20035;-66
2023/03/16 00:11:14;;;;;;;14.37;5.60;;;;;;;;;;4970776;28;20123;-66
2023/03/16 00:13:41;;;;;;;12.65;5.15;;;;;;;;;;4970486;28;20446;-64
2023/03/16 00:16:06;;;;;;;11.80;5.55;;;;;;;;;;4971835;28;20073;-64
2023/03/16 00:18:37;;;;;;;12.93;4.80;;;;;;;;;;4971961;28;20039;-62
2023/03/16 00:21:04;;;;;;;11.15;4.57;;;;;;;;;;4970895;28;20054;-64
2023/03/16 00:23:29;;;;;;;13.55;5.07;;;;;;;;;;4969540;28;20025;-66
2023/03/16 00:25:55;;;;;;;12.17;5.30;;;;;;;;;;4969874;28;20402;-64
2023/03/16 00:28:20;;;;;;;11.93;5.35;;;;;;;;;;4970679;28;20018;-64
2023/03/16 00:30:46;;;;;;;12.27;4.65;;;;;;;;;;4970741;28;20394;-65
2023/03/16 00:33:11;;;;;;;14.55;5.05;;;;;;;;;;4971695;28;20034;-65
2023/03/16 00:35:36;;;;;;;11.53;5.00;;;;;;;;;;4972212;28;20022;-64
2023/03/16 00:38:02;;;;;;;12.38;5.00;;;;;;;;;;4973288;28;20023;-64
2023/03/16 00:40:27;;;;;;;11.18;4.70;;;;;;;;;;4973587;28;20028;-64
2023/03/16 00:42:53;;;;;;;14.20;5.10;;;;;;;;;;4972072;28;20030;-64
2023/03/16 00:45:19;;;;;;;12.63;4.95;;;;;;;;;;4970086;28;20038;-65
2023/03/16 00:47:44;;;;;;;13.50;5.33;;;;;;;;;;4972371;28;20035;-66
2023/03/16 00:50:10;;;;;;;12.30;5.40;;;;;;;;;;4969599;28;20018;-65
2023/03/16 00:52:35;;;;;;;12.38;5.50;;;;;;;;;;4970979;28;20487;-64
2023/03/16 00:55:03;;;;;;;12.60;5.40;;;;;;;;;;4970773;28;20015;-62
2023/03/16 00:57:29;;;;;;;11.45;4.82;;;;;;;;;;4970741;28;20442;-63
2023/03/16 00:59:54;;;;;;;12.55;5.22;;;;;;;;;;4970392;28;20031;-67
2023/03/16 01:02:22;;;;;;;15.15;5.85;;;;;;;;;;4970359;28;20034;-64
2023/03/16 01:04:47;;;;;;;13.63;5.32;;;;;;;;;;4969808;28;20376;-64
2023/03/16 01:07:13;;;;;;;11.80;5.15;;;;;;;;;;4969530;28;20081;-65
2023/03/16 01:09:39;;;;;;;13.98;5.63;;;;;;;;;;4968798;28;20026;-65
2023/03/16 01:12:05;;;;;;;13.43;5.47;;;;;;;;;;4970175;28;20101;-65
2023/03/16 01:14:31;;;;;;;14.35;5.53;;;;;;;;;;4968197;28;20027;-64
2023/03/16 01:16:56;;;;;;;13.70;5.35;;;;;;;;;;4968769;28;20136;-65
2023/03/16 01:19:21;;;;;;;12.25;5.50;;;;;;;;;;4969325;28;20601;-65
2023/03/16 01:21:47;;;;;;;15.60;5.93;;;;;;;;;;4970725;28;20027;-64
2023/03/16 01:24:12;;;;;;;14.02;5.65;;;;;;;;;;4965729;28;20034;-65
2023/03/16 01:26:38;;;;;;;15.73;5.55;;;;;;;;;;4968350;28;20025;-65
2023/03/16 01:29:03;;;;;;;13.13;5.53;;;;;;;;;;4971659;28;20026;-64
2023/03/16 01:31:28;;;;;;;11.37;5.43;;;;;;;;;;4970466;28;20085;-64
2023/03/16 01:33:53;;;;;;;14.60;5.50;;;;;;;;;;4970129;28;20031;-64
2023/03/16 01:36:20;;;;;;;15.03;6.27;;;;;;;;;;4968606;28;20032;-65
2023/03/16 01:38:45;;;;;;;;;;;;;;;;;;4969538;28;20483;-63
2023/03/16 01:41:11;;;;;;;13.02;5.90;;;;;;;;;;4971632;28;20289;-64
2023/03/16 01:43:37;;;;;;;15.65;6.00;;;;;;;;;;4971699;28;20031;-64
2023/03/16 01:46:02;;;;;;;15.43;5.55;;;;;;;;;;4971196;28;20023;-65
2023/03/16 01:48:28;;;;;;;12.70;5.00;;;;;;;;;;4969497;28;20065;-65
2023/03/16 01:50:54;;;;;;;13.52;5.85;;;;;;;;;;4968223;28;20375;-66
2023/03/16 01:53:20;;;;;;;13.00;5.50;;;;;;;;;;4970906;28;20059;-65
2023/03/16 01:55:46;;;;;;;13.00;5.93;;;;;;;;;;4971657;28;20047;-65
2023/03/16 01:58:13;;;;;;;12.07;5.28;;;;;;;;;;4972480;28;20027;-66
2023/03/16 02:00:40;;;;;;;12.05;5.38;;;;;;;;;;4969653;28;20030;-64
2023/03/16 02:03:05;;;;;;;;;;;;;;;;;;4968327;28;20026;-64
2023/03/16 02:05:41;;;;;;;12.70;5.30;;;;;;;;;;4970283;28;19993;-66
2023/03/16 02:08:07;;;;;;;12.30;5.28;;;;;;;;;;4964261;28;20490;-64
2023/03/16 02:10:33;;;;;;;13.60;5.25;;;;;;;;;;4972765;28;20015;-63
2023/03/16 02:12:58;;;;;;;12.75;4.97;;;;;;;;;;4972158;28;20038;-64
2023/03/16 02:15:23;;;;;;;14.10;5.37;;;;;;;;;;4970898;28;20126;-65
2023/03/16 02:17:49;;;;;;;11.30;5.28;;;;;;;;;;4969411;28;20458;-64
2023/03/16 02:20:29;;;;;;;12.05;4.75;;;;;;;;;;4969869;28;20027;-64
2023/03/16 02:22:55;;;;;;;12.93;5.07;;;;;;;;;;4967921;28;20027;-65
2023/03/16 02:25:43;;;;;;;9.52;4.75;;;;;;;;;;4969199;28;20073;-64
2023/03/16 02:28:16;;;;;;;12.00;4.88;;;;;;;;;;4960619;28;20031;-62
2023/03/16 02:30:41;;;;;;;14.07;5.60;;;;;;;;;;4969276;28;20035;-65
2023/03/16 02:33:07;;;;;;;11.97;5.20;;;;;;;;;;4971198;28;20098;-64
2023/03/16 02:35:32;;;;;;;11.13;4.68;;;;;;;;;;4970853;28;20081;-64
2023/03/16 02:37:58;;;;;;;13.83;4.57;;;;;;;;;;4966777;28;20073;-65
2023/03/16 02:40:33;;;;;;;13.60;5.65;;;;;;;;;;4970466;28;20267;-65
2023/03/16 02:43:21;;;;;;;12.40;4.93;;;;;;;;;;4971584;28;20084;-65
2023/03/16 02:45:52;;;;;;;9.80;4.55;;;;;;;;;;4967020;28;20081;-64
2023/03/16 02:48:22;;;;;;;11.85;5.03;;;;;;;;;;4973798;28;20030;-64
2023/03/16 02:50:48;;;;;;;12.90;4.90;;;;;;;;;;4974775;28;20088;-63
2023/03/16 02:53:13;;;;;;;11.07;4.50;;;;;;;;;;4977942;28;20023;-66
2023/03/16 02:55:39;;;;;;;9.98;4.43;;;;;;;;;;4978590;28;20026;-62
2023/03/16 02:58:04;;;;;;;10.70;4.37;;;;;;;;;;4977825;28;20043;-65
2023/03/16 03:00:29;;;;;;;13.40;5.05;;;;;;;;;;4978338;28;20030;-62
2023/03/16 03:02:54;;;;;;;11.50;4.30;;;;;;;;;;4976864;28;20137;-65
2023/03/16 03:05:20;;;;;;;13.00;4.78;;;;;;;;;;4970679;28;20508;-65
2023/03/16 03:07:45;;;;;;;11.93;4.75;;;;;;;;;;4971634;28;20524;-62
2023/03/16 03:10:10;;;;;;;13.47;4.90;;;;;;;;;;4974372;28;20070;-65
2023/03/16 03:12:35;;;;;;;10.17;4.40;;;;;;;;;;4974703;28;20817;-64
2023/03/16 03:15:00;;;;;;;11.17;4.33;;;;;;;;;;4974766;28;20051;-64
2023/03/16 03:17:28;;;;;;;10.27;4.53;;;;;;;;;;4969353;28;20118;-64
2023/03/16 03:19:54;;;;;;;10.82;4.55;;;;;;;;;;4968341;28;20054;-65
2023/03/16 03:22:19;;;;;;;11.45;4.43;;;;;;;;;;4968568;28;20019;-63
2023/03/16 03:24:45;;;;;;;10.50;4.25;;;;;;;;;;4969389;28;20031;-64
2023/03/16 03:27:10;;;;;;;9.95;4.50;;;;;;;;;;4968647;28;20034;-64
2023/03/16 03:29:35;;;;;;;10.70;4.70;;;;;;;;;;4973868;28;20482;-65
2023/03/16 03:32:00;;;;;;;9.60;4.35;;;;;;;;;;4971212;28;20021;-66
2023/03/16 03:34:26;;;;;;;12.13;4.22;;;;;;;;;;4972432;28;20141;-62
2023/03/16 03:36:52;;;;;;;11.93;4.28;;;;;;;;;;4971425;28;20031;-65
2023/03/16 03:39:17;;;;;;;13.88;4.32;;;;;;;;;;4971881;28;20533;-65
2023/03/16 03:41:42;;;;;;;9.53;3.77;;;;;;;;;;4974169;28;20069;-65
2023/03/16 03:44:08;;;;;;;10.27;4.25;;;;;;;;;;4974507;28;20019;-66
2023/03/16 03:46:33;;;;;;;9.60;3.87;;;;;;;;;;4970959;28;20034;-65
2023/03/16 03:49:02;;;;;;;9.02;4.05;;;;;;;;;;4972059;28;20022;-63
2023/03/16 03:51:27;;;;;;;9.50;4.07;;;;;;;;;;4973544;28;20023;-65
2023/03/16 03:53:52;;;;;;;9.97;3.80;;;;;;;;;;4973632;28;20034;-65
2023/03/16 03:56:18;;;;;;;8.90;3.92;;;;;;;;;;4973288;28;20019;-65
2023/03/16 03:58:43;;;;;;;10.00;4.17;;;;;;;;;;4972587;28;20031;-64
2023/03/16 04:01:08;;;;;;;9.07;3.90;;;;;;;;;;4972156;28;20014;-66
2023/03/16 04:03:33;;;;;;;13.25;4.45;;;;;;;;;;4972747;28;20895;-65
2023/03/16 04:05:58;;;;;;;10.23;4.10;;;;;;;;;;4972128;28;20504;-64
2023/03/16 04:08:23;;;;;;;9.82;4.15;;;;;;;;;;4971385;28;20039;-64
2023/03/16 04:10:48;;;;;;;11.20;4.60;;;;;;;;;;4971415;28;20110;-66
2023/03/16 04:13:14;;;;;;;10.88;4.13;;;;;;;;;;4972215;28;20014;-65
2023/03/16 04:15:39;;;;;;;8.10;3.38;;;;;;;;;;4971058;28;20026;-64
2023/03/16 04:18:04;;;;;;;11.90;4.50;;;;;;;;;;4974164;28;20062;-65
2023/03/16 04:20:30;;;;;;;12.10;3.90;;;;;;;;;;4971221;28;20101;-63
2023/03/16 04:22:57;;;;;;;9.65;4.28;;;;;;;;;;4970229;28;20106;-64
2023/03/16 04:25:24;;;;;;;11.13;4.18;;;;;;;;;;4968997;28;20031;-64
2023/03/16 04:27:50;;;;;;;9.32;3.63;;;;;;;;;;4970259;28;20474;-66
2023/03/16 04:30:15;;;;;;;9.00;3.75;;;;;;;;;;4968735;28;20049;-64
2023/03/16 04:32:40;;;;;;;9.83;4.07;;;;;;;;;;4969464;28;20109;-65
2023/03/16 04:35:06;;;;;;;9.07;4.10;;;;;;;;;;4970008;28;20030;-65
2023/03/16 04:37:31;;;;;;;9.90;4.10;;;;;;;;;;4970397;28;20015;-63
2023/03/16 04:39:56;;;;;;;9.88;4.10;;;;;;;;;;4971030;28;20035;-65
2023/03/16 04:42:21;;;;;;;11.47;4.10;;;;;;;;;;4969086;28;20106;-64
2023/03/16 04:44:47;;;;;;;9.50;3.80;;;;;;;;;;4968901;28;20072;-66
2023/03/16 04:47:13;;;;;;;9.75;3.90;;;;;;;;;;4971443;28;20105;-66
2023/03/16 04:49:38;;;;;;;10.85;4.20;;;;;;;;;;4972667;28;20482;-66
2023/03/16 04:52:04;;;;;;;10.07;4.00;;;;;;;;;;4973042;28;20034;-64
2023/03/16 04:54:29;;;;;;;10.52;4.25;;;;;;;;;;4970928;28;20078;-64
2023/03/16 04:56:55;;;;;;;11.65;4.22;;;;;;;;;;4969982;28;20023;-65
2023/03/16 04:59:20;;;;;;;12.07;4.22;;;;;;;;;;4972543;28;20027;-63
2023/03/16 05:01:45;;;;;;;9.73;3.80;;;;;;;;;;4970553;28;20023;-65
2023/03/16 05:04:11;;;;;;;10.93;4.30;;;;;;;;;;4969546;28;20058;-65
2023/03/16 05:06:36;;;;;;;10.48;4.03;;;;;;;;;;4972288;28;20455;-65
2023/03/16 05:09:03;;;;;;;10.80;4.28;;;;;;;;;;4970230;28;20495;-64
2023/03/16 05:11:29;;;;;;;11.00;4.50;;;;;;;;;;4969796;28;20026;-66
2023/03/16 05:13:54;;;;;;;9.20;4.25;;;;;;;;;;4972132;28;20030;-63
2023/03/16 05:16:19;;;;;;;12.55;4.03;;;;;;;;;;4967106;28;20082;-66
2023/03/16 05:18:44;;;;;;;10.27;4.20;;;;;;;;;;4981763;28;20579;-65
2023/03/16 05:21:09;;;;;;;9.68;4.30;;;;;;;;;;4974970;28;20102;-66
2023/03/16 05:23:34;;;;;;;12.88;4.43;;;;;;;;;;4976518;28;20073;-66
2023/03/16 05:25:59;;;;;;;10.77;4.37;;;;;;;;;;4975071;28;20378;-65
2023/03/16 05:28:25;;;;;;;11.87;4.33;;;;;;;;;;4968498;28;20054;-66
2023/03/16 05:30:50;;;;;;;9.05;3.60;;;;;;;;;;4965253;28;20027;-62
2023/03/16 05:33:15;;;;;;;9.07;4.00;;;;;;;;;;4964917;28;20023;-64
2023/03/16 05:35:41;;;;;;;10.20;4.05;;;;;;;;;;4964525;28;20026;-65
2023/03/16 05:38:08;;;;;;;10.63;3.95;;;;;;;;;;4966807;28;20046;-62
2023/03/16 05:40:33;;;;;;;11.80;4.30;;;;;;;;;;4964803;28;21799;-64
2023/03/16 05:42:59;;;;;;;12.85;4.55;;;;;;;;;;4965657;28;20047;-62
2023/03/16 05:45:24;;;;;;;9.15;4.10;;;;;;;;;;4968177;28;20053;-65
2023/03/16 05:47:49;;;;;;;11.95;4.72;;;;;;;;;;4970782;28;20030;-66
2023/03/16 05:50:15;;;;;;;13.57;5.00;;;;;;;;;;4968605;28;20070;-64
2023/03/16 05:52:40;;;;;;;12.05;4.53;;;;;;;;;;4970241;28;20041;-64
2023/03/16 05:55:06;;;;;;;10.93;4.17;;;;;;;;;;4966512;28;20019;-63
2023/03/16 05:57:33;;;;;;;12.80;4.63;;;;;;;;;;4973261;28;20525;-65
2023/03/16 05:59:58;;;;;;;12.63;4.43;;;;;;;;;;4977012;28;20055;-62
2023/03/16 06:02:23;;;;;;;12.07;4.30;;;;;;;;;;4972182;28;20037;-64
2023/03/16 06:04:48;;;;;;;10.23;3.80;;;;;;;;;;4966450;28;20130;-65
2023/03/16 06:07:13;;;;;;;9.20;3.80;;;;;;;;;;4965745;28;20057;-65
2023/03/16 06:09:38;;;;;;;12.77;4.33;;;;;;;;;;4966035;28;20769;-62
2023/03/16 06:12:04;;;;;;;9.97;3.97;;;;;;;;;;4967464;28;20426;-66
2023/03/16 06:14:29;;;;;;;15.27;4.23;;;;;;;;;;4965409;28;20038;-64
2023/03/16 06:16:54;;;;;;;10.87;4.33;;;;;;;;;;4967834;28;20556;-65
2023/03/16 06:19:20;;;;;;;10.17;4.50;;;;;;;;;;4970609;28;20034;-65
2023/03/16 06:21:46;;;;;;;12.60;5.60;;;;;;;;;;4971365;28;20031;-65
2023/03/16 06:24:12;;;;;;;14.40;6.60;;;;;;;;;;4969966;28;20026;-65
2023/03/16 06:26:37;;;;;;;17.83;7.38;;;;;;;;;;4971943;28;20125;-64
2023/03/16 06:29:02;;;;;;;16.33;7.43;;;;;;;;;;4977842;28;20186;-64
2023/03/16 06:31:28;;;;;;;15.18;6.88;;;;;;;;;;4971356;28;20031;-65
2023/03/16 06:33:53;;;;;;;13.88;5.72;;;;;;;;;;4972126;28;20430;-62
2023/03/16 06:36:19;;;;;;;14.02;5.65;;;;;;;;;;4970245;28;20029;-65
2023/03/16 06:38:44;;;;;;;16.40;5.13;;;;;;;;;;4971844;28;20548;-65
2023/03/16 06:41:09;;;;;;;13.10;5.07;;;;;;;;;;4971362;28;20386;-64
2023/03/16 06:43:34;;;;;;;13.77;5.73;;;;;;;;;;4964554;28;20029;-65
2023/03/16 06:46:00;;;;;;;14.53;6.27;;;;;;;;;;4969685;28;20029;-65
2023/03/16 06:48:25;;;;;;;13.63;6.45;;;;;;;;;;4970908;28;20364;-65
2023/03/16 06:50:50;;;;;;;13.70;7.13;;;;;;;;;;4970727;28;20491;-64
2023/03/16 06:53:15;;;;;;;10.43;5.20;;;;;;;;;;4967164;28;20132;-63
2023/03/16 06:55:41;;;;;;;11.45;4.88;;;;;;;;;;4968026;28;20046;-65
2023/03/16 06:58:06;;;;;;;9.85;4.57;;;;;;;;;;4968249;28;20029;-66
2023/03/16 07:00:32;;;;;;;13.93;4.47;;;;;;;;;;4967287;28;20026;-66
2023/03/16 07:02:58;;;;;;;11.35;4.30;;;;;;;;;;4972651;28;20092;-64
2023/03/16 07:05:23;;;;;;;10.60;4.70;;;;;;;;;;4971569;28;20482;-64
2023/03/16 07:07:48;;;;;;;10.70;4.47;;;;;;;;;;4976831;28;20128;-64
2023/03/16 07:10:14;;;;;;;10.90;4.95;;;;;;;;;;4976872;28;20023;-64
2023/03/16 07:12:41;;;;;;;10.73;4.72;;;;;;;;;;4975208;28;20026;-63
2023/03/16 07:15:06;;;;;;;12.70;4.20;;;;;;;;;;4975878;28;20085;-63
2023/03/16 07:17:31;;;;;;;9.57;4.35;;;;;;;;;;4973611;28;20414;-65
2023/03/16 07:19:56;;;;;;;9.90;4.38;;;;;;;;;;4976911;28;20038;-64
2023/03/16 07:22:21;;;;;;;9.43;4.90;;;;;;;;;;4976168;28;20580;-64
2023/03/16 07:24:50;;;;;;;12.40;4.83;;;;;;;;;;4976945;28;20026;-65
2023/03/16 07:27:16;;;;;;;11.85;5.22;;;;;;;;;;4976926;28;20033;-64
2023/03/16 07:29:41;;;;;;;9.73;4.35;;;;;;;;;;4976192;28;20452;-65
2023/03/16 07:32:06;;;;;;;9.73;4.20;;;;;;;;;;4971435;28;20089;-66
2023/03/16 07:34:31;;;;;;;11.67;4.07;;;;;;;;;;4969311;28;20027;-65
2023/03/16 07:36:56;;;;;;;11.43;4.27;;;;;;;;;;4967168;28;20453;-65
2023/03/16 07:39:22;;;;;;;10.65;3.97;;;;;;;;;;4974302;28;20034;-63
2023/03/16 07:41:47;;;;;;;9.30;4.03;;;;;;;;;;4970530;28;20025;-65
2023/03/16 07:44:13;;;;;;;9.40;3.95;;;;;;;;;;4976130;28;20055;-64
2023/03/16 07:46:38;;;;;;;8.40;3.33;;;;;;;;;;4975372;28;20097;-65
2023/03/16 07:49:03;;;;;;;8.30;3.67;;;;;;;;;;4976219;28;20030;-65
2023/03/16 07:51:28;;;;;;;10.13;3.90;;;;;;;;;;4976550;28;20022;-64
2023/03/16 07:53:53;;;;;;;7.18;3.45;;;;;;;;;;4976351;28;20040;-65
2023/03/16 07:56:19;;;;;;;8.53;3.47;;;;;;;;;;4976852;28;20431;-64
2023/03/16 07:58:44;;;;;;;9.03;3.73;;;;;;;;;;4976224;28;20080;-65
2023/03/16 08:01:10;;;;;;;10.33;3.53;;;;;;;;;;4977432;28;20513;-65
2023/03/16 08:03:35;;;;;;;8.48;3.85;;;;;;;;;;4969482;28;20394;-66
2023/03/16 08:06:00;;;;;;;10.82;3.70;;;;;;;;;;4970642;28;20027;-63
2023/03/16 08:08:26;;;;;;;7.37;3.47;;;;;;;;;;4973122;28;20027;-65
2023/03/16 08:10:51;;;;;;;9.80;3.65;;;;;;;;;;4973606;28;20041;-63
2023/03/16 08:13:17;;;;;;;8.63;3.50;;;;;;;;;;4973011;28;20553;-64
2023/03/16 08:15:44;;;;;;;9.88;3.63;;;;;;;;;;4969178;28;20034;-65
2023/03/16 08:18:11;;;;;;;10.63;3.33;;;;;;;;;;4967277;28;20108;-65
2023/03/16 08:20:36;;;;;;;8.80;3.38;;;;;;;;;;4971584;28;20372;-65
2023/03/16 08:23:01;;;;;;;9.75;3.55;;;;;;;;;;4971019;28;20031;-64
2023/03/16 08:25:26;;;;;;;9.73;3.88;;;;;;;;;;4968136;28;20356;-65
2023/03/16 08:27:52;;;;;;;8.85;3.70;;;;;;;;;;4969776;28;20038;-65
2023/03/16 08:30:17;;;;;;;14.07;3.53;;;;;;;;;;4967003;28;20033;-61
2023/03/16 08:32:43;;;;;;;10.75;3.58;;;;;;;;;;4965095;28;20035;-61
2023/03/16 08:35:09;;;;;;;9.88;3.35;;;;;;;;;;4961955;28;20042;-65
2023/03/16 08:37:34;;;;;;;8.02;2.95;;;;;;;;;;4969075;28;20085;-63
2023/03/16 08:40:00;;;;;;;6.60;2.47;;;;;;;;;;4971685;28;20031;-64
2023/03/16 08:42:27;;;;;;;6.70;2.67;;;;;;;;;;4971709;28;20019;-64
2023/03/16 08:44:54;;;;;;;11.25;2.40;;;;;;;;;;4973931;28;20026;-64
2023/03/16 08:47:19;;;;;;;8.07;2.67;;;;;;;;;;4972418;28;20034;-64
2023/03/16 08:49:44;;;;;;;8.60;2.63;;;;;;;;;;4970729;28;20035;-63
2023/03/16 08:52:09;;;;;;;8.43;2.67;;;;;;;;;;4971013;28;20454;-64
2023/03/16 08:54:35;;;;;;;8.47;2.67;;;;;;;;;;4968843;28;20600;-64
2023/03/16 08:57:00;;;;;;;7.55;2.72;;;;;;;;;;4977643;28;20390;-65
2023/03/16 08:59:25;;;;;;;7.87;2.53;;;;;;;;;;4978461;28;20494;-64
2023/03/16 09:01:50;;;;;;;6.80;2.50;;;;;;;;;;4974807;28;20058;-66
2023/03/16 09:04:15;;;;;;;8.45;2.95;;;;;;;;;;4975140;28;20015;-65
2023/03/16 09:06:41;;;;;;;6.53;2.50;;;;;;;;;;4972651;28;20486;-64
2023/03/16 09:09:08;;;;;;;10.97;2.87;;;;;;;;;;4973092;28;20114;-65
2023/03/16 09:11:33;;;;;;;6.90;2.20;;;;;;;;;;4972359;28;20084;-64
2023/03/16 09:13:59;;;;;;;7.18;2.20;;;;;;;;;;4972388;28;20472;-63
2023/03/16 09:16:24;;;;;;;5.03;1.98;;;;;;;;;;4971559;28;20125;-65
2023/03/16 09:18:50;;;;;;;9.30;3.10;;;;;;;;;;4973623;28;20034;-64
2023/03/16 09:21:15;;;;;;;7.72;2.13;;;;;;;;;;4971596;28;20018;-64
2023/03/16 09:23:44;;;;;;;8.70;2.40;;;;;;;;;;4971545;28;20739;-64
2023/03/16 09:26:11;;;;;;;10.18;2.10;;;;;;;;;;4971585;28;20045;-63
2023/03/16 09:28:37;;;;;;;4.82;1.70;;;;;;;;;;4972390;28;20101;-64
2023/03/16 09:31:03;;;;;;;7.45;1.85;;;;;;;;;;4971927;28;20033;-63
2023/03/16 09:33:29;;;;;;;7.32;1.80;;;;;;;;;;4971921;28;20023;-65
2023/03/16 09:35:56;;;;;;;6.38;1.90;;;;;;;;;;4971804;28;20034;-66
2023/03/16 09:38:21;;;;;;;6.55;1.60;;;;;;;;;;4972122;28;20023;-65
2023/03/16 09:40:47;;;;;;;7.07;1.77;;;;;;;;;;4971434;28;20027;-65
2023/03/16 09:43:19;;;;;;;5.55;1.95;;;;;;;;;;4964273;28;20061;-63
2023/03/16 09:45:55;;;;;;;7.07;1.90;;;;;;;;;;4967606;28;20113;-64
2023/03/16 09:48:20;;;;;;;6.80;1.73;;;;;;;;;;4968244;28;20031;-64
2023/03/16 09:50:47;;;;;;;5.07;1.50;;;;;;;;;;4972817;28;20030;-64
2023/03/16 09:53:28;;;;;;;7.13;1.70;;;;;;;;;;4971307;28;20038;-65
2023/03/16 09:55:56;;;;;;;6.60;1.60;;;;;;;;;;4970675;28;20399;-64
2023/03/16 09:58:21;;;;;;;9.38;1.40;;;;;;;;;;4978875;28;20521;-64
2023/03/16 10:00:52;;;;;;;6.18;1.20;;;;;;;;;;4970259;28;20031;-64
2023/03/16 10:03:27;;;;;;;5.25;1.20;;;;;;;;;;4969745;28;20073;-64
2023/03/16 10:05:57;;;;;;;4.63;1.20;;;;;;;;;;4971113;28;20023;-63
2023/03/16 10:08:24;;;;;;;7.68;1.52;;;;;;;;;;4972789;28;20030;-65
2023/03/16 10:11:01;;;;;;;6.82;1.40;;;;;;;;;;4967434;28;20030;-65
2023/03/16 10:13:32;;;;;;;4.97;1.20;;;;;;;;;;4968177;28;20029;-65
2023/03/16 10:15:58;;;;;;;5.72;1.50;;;;;;;;;;4965201;28;20491;-62
2023/03/16 10:18:27;;;;;;;6.88;1.23;;;;;;;;;;4972188;28;20026;-64
2023/03/16 10:20:54;;;;;;;3.85;1.10;;;;;;;;;;4974516;28;20113;-64
2023/03/16 10:23:20;;;;;;;;;;;;;;;;;;4971774;28;20023;-65
2023/03/16 10:25:46;;;;;;;5.03;1.00;;;;;;;;;;4970597;28;19914;-66
2023/03/16 10:28:14;;;;;;;6.55;1.00;;;;;;;;;;4970851;28;20015;-65
2023/03/16 10:30:39;;;;;;;4.65;1.00;;;;;;;;;;4968964;28;20027;-65
2023/03/16 10:33:17;;;;;;;4.38;0.90;;;;;;;;;;4970388;28;20391;-67
2023/03/16 10:36:04;;;;;;;5.90;1.13;;;;;;;;;;4965490;28;20030;-65
2023/03/16 10:38:29;;;;;;;7.78;1.20;;;;;;;;;;4965545;28;20376;-64
2023/03/16 10:40:56;;;;;;;7.38;1.20;;;;;;;;;;4969781;28;20042;-67
2023/03/16 10:43:23;;;;;;;5.72;1.40;;;;;;;;;;4966474;28;20129;-64
2023/03/16 10:45:48;;;;;;;5.70;1.42;;;;;;;;;;4970264;28;20387;-63
2023/03/16 10:48:16;;;;;;;4.82;0.90;;;;;;;;;;4971685;28;20015;-65
2023/03/16 10:50:42;;;;;;;7.22;1.30;;;;;;;;;;4970068;28;20504;-65
2023/03/16 10:53:22;;;;;;;9.23;1.45;;;;;;;;;;4969523;28;20098;-64
2023/03/16 10:55:49;;;;;;;6.03;1.02;;;;;;;;;;4969989;28;20039;-67
2023/03/16 10:58:34;;;;;;;4.60;1.02;;;;;;;;;;4967245;28;20114;-62
2023/03/16 11:01:00;;;;;;;7.93;1.17;;;;;;;;;;4970036;28;20037;-64
2023/03/16 11:03:27;;;;;;;3.30;0.70;;;;;;;;;;4971787;28;20015;-66
2023/03/16 11:05:56;;;;;;;3.85;0.88;;;;;;;;;;4964222;28;20026;-64
2023/03/16 11:08:24;;;;;;;5.30;0.80;;;;;;;;;;4958287;28;20030;-67
2023/03/16 11:10:56;;;;;;;6.40;0.90;;;;;;;;;;4967798;28;20030;-65
2023/03/16 11:13:21;;;;;;;4.18;0.90;;;;;;;;;;4968432;28;20382;-65
2023/03/16 11:15:49;;;;;;;4.15;0.70;;;;;;;;;;4967467;28;20023;-63
2023/03/16 11:18:42;;;;;;;4.95;1.00;;;;;;;;;;4966670;28;20454;-63
2023/03/16 11:21:13;;;;;;;4.30;0.80;;;;;;;;;;4965960;28;20035;-64
2023/03/16 11:23:42;;;;;;;3.63;0.90;;;;;;;;;;4967771;28;20026;-64
2023/03/16 11:26:16;;;;;;;5.10;1.00;;;;;;;;;;4967239;28;20022;-65
2023/03/16 11:28:44;;;;;;;4.65;1.00;;;;;;;;;;4967137;28;20027;-64
2023/03/16 11:31:28;;;;;;;4.30;1.10;;;;;;;;;;4965742;28;20411;-66
2023/03/16 11:33:56;;;;;;;5.40;0.90;;;;;;;;;;4964950;28;20360;-65
2023/03/16 11:36:30;;;;;;;4.25;0.90;;;;;;;;;;4966647;28;20057;-64
2023/03/16 11:38:55;;;;;;;4.90;0.98;;;;;;;;;;4966513;28;20031;-64
2023/03/16 11:41:33;;;;;;;3.67;0.80;;;;;;;;;;4980770;28;20022;-65
2023/03/16 11:44:02;;;;;;;6.78;0.90;;;;;;;;;;4962769;28;20019;-64
2023/03/16 11:46:35;;;;;;;4.47;0.90;;;;;;;;;;4963711;28;20486;-64
2023/03/16 11:49:19;;;;;;;5.28;0.70;;;;;;;;;;4964517;28;20163;-65
2023/03/16 11:51:52;;;;;;;4.07;0.70;;;;;;;;;;4969054;28;20022;-64
2023/03/16 11:54:32;;;;;;;4.63;1.00;;;;;;;;;;4965043;28;20030;-67
2023/03/16 11:57:03;;;;;;;5.30;0.70;;;;;;;;;;4959130;28;20014;-63
2023/03/16 11:59:45;;;;;;;5.05;1.05;;;;;;;;;;4969914;28;20027;-63
2023/03/16 12:02:27;;;;;;;3.92;0.85;;;;;;;;;;4969917;28;20121;-64
2023/03/16 12:05:19;;;;;;;4.45;0.90;;;;;;;;;;4973007;28;20113;-64
2023/03/16 12:07:50;;;;;;;6.40;0.95;;;;;;;;;;4967700;28;20030;-64
2023/03/16 12:10:22;;;;;;;9.70;1.13;;;;;;;;;;4969096;28;20109;-65
2023/03/16 12:13:07;;;;;;;5.07;1.05;;;;;;;;;;4967959;28;20047;-69
2023/03/16 12:15:46;;;;;;;3.40;0.80;;;;;;;;;;4960711;28;20044;-65
2023/03/16 12:18:14;;;;;;;3.78;1.00;;;;;;;;;;4966468;28;20110;-66
2023/03/16 12:20:52;;;;;;;5.88;1.08;;;;;;;;;;4968506;28;20070;-63
2023/03/16 12:23:31;;;;;;;4.22;1.00;;;;;;;;;;4968903;28;21064;-64
2023/03/16 12:25:58;;;;;;;5.55;1.02;;;;;;;;;;4964736;28;20406;-63
2023/03/16 12:28:25;;;;;;;6.10;0.90;;;;;;;;;;4965502;28;20114;-65
2023/03/16 12:30:58;;;;;;;5.65;1.00;;;;;;;;;;4966245;28;20022;-62
2023/03/16 12:33:49;;;;;;;4.63;0.88;;;;;;;;;;4970024;28;20015;-65
2023/03/16 12:36:28;;;;;;;4.13;0.90;;;;;;;;;;4965392;28;20034;-64
2023/03/16 12:39:04;;;;;;;4.47;0.77;;;;;;;;;;4970015;28;20118;-65
2023/03/16 12:41:48;;;;;;;5.72;1.00;;;;;;;;;;4970651;28;20111;-64
2023/03/16 12:44:31;;;;;;;8.23;0.90;;;;;;;;;;4964871;28;20387;-63
2023/03/16 12:47:14;;;;;;;4.40;1.13;;;;;;;;;;4963680;28;20181;-62
2023/03/16 12:49:40;;;;;;;6.10;1.05;;;;;;;;;;4966891;28;20027;-65
2023/03/16 12:52:07;;;;;;;6.13;1.20;;;;;;;;;;4965243;28;20030;-63
2023/03/16 12:54:32;;;;;;;8.13;1.20;;;;;;;;;;4969502;28;20026;-64
2023/03/16 12:57:05;;;;;;;5.37;1.30;;;;;;;;;;4970372;28;20019;-65
2023/03/16 12:59:44;;;;;;;4.70;1.30;;;;;;;;;;4970205;28;20026;-66
2023/03/16 13:02:12;;;;;;;5.72;1.40;;;;;;;;;;4967373;28;20035;-65
2023/03/16 13:04:39;;;;;;;4.68;1.08;;;;;;;;;;4967029;28;20154;-66
2023/03/16 13:07:18;;;;;;;9.57;1.45;;;;;;;;;;4966692;28;20569;-64
2023/03/16 13:09:48;;;;;;;5.40;1.10;;;;;;;;;;4970010;28;20117;-63
2023/03/16 13:12:40;;;;;;;6.57;1.00;;;;;;;;;;4966978;28;20029;-62
2023/03/16 13:15:18;;;;;;;6.63;1.20;;;;;;;;;;4968105;28;20117;-63
2023/03/16 13:17:47;;;;;;;4.90;1.40;;;;;;;;;;4970273;28;20022;-63
2023/03/16 13:20:12;;;;;;;7.60;1.60;;;;;;;;;;4962746;28;20029;-65
2023/03/16 13:22:43;;;;;;;8.20;1.73;;;;;;;;;;4968717;28;20032;-65
2023/03/16 13:25:14;;;;;;;6.00;1.52;;;;;;;;;;4968178;28;20667;-65
2023/03/16 13:27:39;;;;;;;6.15;1.60;;;;;;;;;;4967435;28;20049;-65
2023/03/16 13:30:17;;;;;;;7.03;1.42;;;;;;;;;;4967377;28;20490;-66
2023/03/16 13:32:42;;;;;;;6.57;1.65;;;;;;;;;;4969761;28;20727;-64
2023/03/16 13:35:12;;;;;;;5.47;1.40;;;;;;;;;;4966483;28;20026;-65
2023/03/16 13:37:38;;;;;;;6.45;1.50;;;;;;;;;;4967249;28;20026;-65
2023/03/16 13:40:04;;;;;;;7.60;1.30;;;;;;;;;;4969523;28;20034;-67
2023/03/16 13:42:31;;;;;;;11.50;1.52;;;;;;;;;;4966223;28;20070;-65
2023/03/16 13:44:57;;;;;;;5.25;1.30;;;;;;;;;;4968721;28;20025;-65
2023/03/16 13:47:25;;;;;;;4.85;1.60;;;;;;;;;;4970915;28;20428;-64
2023/03/16 13:49:54;;;;;;;5.22;1.33;;;;;;;;;;4965989;28;20031;-65
2023/03/16 13:52:30;;;;;;;9.15;1.77;;;;;;;;;;4965894;28;20644;-64
2023/03/16 13:54:56;;;;;;;5.85;1.30;;;;;;;;;;4965821;28;20030;-64
2023/03/16 13:57:22;;;;;;;;;;;;;;;;;;4966939;28;20042;-65
2023/03/16 13:59:48;;;;;;;6.68;1.48;;;;;;;;;;4966319;28;19965;-63
2023/03/16 14:02:18;;;;;;;5.55;1.60;;;;;;;;;;4964852;28;20062;-63
2023/03/16 14:04:43;;;;;;;9.18;1.85;;;;;;;;;;4967088;28;20483;-63
2023/03/16 14:07:18;;;;;;;7.07;1.83;;;;;;;;;;4966940;28;20030;-63
2023/03/16 14:09:48;;;;;;;4.63;1.27;;;;;;;;;;4964625;28;20081;-62
2023/03/16 14:12:14;;;;;;;5.85;1.40;;;;;;;;;;4964920;28;20031;-64
2023/03/16 14:14:40;;;;;;;4.20;1.23;;;;;;;;;;4966085;28;20475;-64
2023/03/16 14:17:10;;;;;;;6.40;1.38;;;;;;;;;;4968169;28;20050;-63
2023/03/16 14:19:44;;;;;;;6.20;1.45;;;;;;;;;;4961340;28;20023;-65
2023/03/16 14:22:11;;;;;;;8.77;1.70;;;;;;;;;;4970765;28;20029;-66
2023/03/16 14:24:39;;;;;;;5.45;1.30;;;;;;;;;;4968548;28;20165;-63
2023/03/16 14:27:08;;;;;;;9.63;1.83;;;;;;;;;;4969406;28;20041;-65
2023/03/16 14:29:34;;;;;;;6.00;1.70;;;;;;;;;;4967095;28;20455;-63
2023/03/16 14:31:59;;;;;;;6.28;1.42;;;;;;;;;;4969042;28;20025;-65
2023/03/16 14:34:24;;;;;;;6.60;1.70;;;;;;;;;;4969963;28;20122;-66
2023/03/16 14:36:50;;;;;;;5.57;1.67;;;;;;;;;;4974643;28;20034;-65
2023/03/16 14:39:18;;;;;;;7.67;1.70;;;;;;;;;;4967911;28;20026;-66
2023/03/16 14:41:44;;;;;;;5.97;1.60;;;;;;;;;;4975638;28;20482;-66